sensor_id;sensor_type;location;lat;lon;timestamp;pressure;altitude;pressure_sealevel;temperature;humidity
61086;BME280;46967;48.876;2.136;2023-02-22T00:02:14;101171.25;;;7.75;90.79
61086;BME280;46967;48.876;2.136;2023-02-22T00:04:52;101166.09;;;7.74;91.02
61086;BME280;46967;48.876;2.136;2023-02-22T00:07:18;101165.25;;;7.73;91.21
61086;BME280;46967;48.876;2.136;2023-02-22T00:09:45;101161.78;;;7.76;91.23
61086;BME280;46967;48.876;2.136;2023-02-22T00:12:11;101158.31;;;7.75;91.34
61086;BME280;46967;48.876;2.136;2023-02-22T00:14:36;101151.41;;;7.79;91.06
61086;BME280;46967;48.876;2.136;2023-02-22T00:17:01;101157.41;;;7.79;91.31
61086;BME280;46967;48.876;2.136;2023-02-22T00:19:27;101147.03;;;7.83;91.05
61086;BME280;46967;48.876;2.136;2023-02-22T00:21:55;101150.44;;;7.85;91.07
61086;BME280;46967;48.876;2.136;2023-02-22T00:24:22;101141.88;;;7.83;91.24
61086;BME280;46967;48.876;2.136;2023-02-22T00:26:52;101129.75;;;7.86;91.20
61086;BME280;46967;48.876;2.136;2023-02-22T00:29:20;101141.88;;;7.83;91.75
61086;BME280;46967;48.876;2.136;2023-02-22T00:31:45;101148.72;;;7.88;91.87
61086;BME280;46967;48.876;2.136;2023-02-22T00:34:12;101124.63;;;7.85;92.37
61086;BME280;46967;48.876;2.136;2023-02-22T00:36:38;101128.06;;;7.87;92.73
61086;BME280;46967;48.876;2.136;2023-02-22T00:39:03;101128.00;;;7.90;92.99
61086;BME280;46967;48.876;2.136;2023-02-22T00:41:28;101128.03;;;7.88;93.27
61086;BME280;46967;48.876;2.136;2023-02-22T00:43:54;101122.00;;;7.88;93.77
61086;BME280;46967;48.876;2.136;2023-02-22T00:46:19;101128.00;;;7.90;93.86
61086;BME280;46967;48.876;2.136;2023-02-22T00:48:44;101122.78;;;7.93;93.79
61086;BME280;46967;48.876;2.136;2023-02-22T00:51:10;101121.94;;;7.91;93.79
61086;BME280;46967;48.876;2.136;2023-02-22T00:53:35;101113.34;;;7.92;94.14
61086;BME280;46967;48.876;2.136;2023-02-22T00:56:00;101116.78;;;7.91;94.32
61086;BME280;46967;48.876;2.136;2023-02-22T00:58:26;101116.78;;;7.91;94.51
61086;BME280;46967;48.876;2.136;2023-02-22T01:00:51;101121.09;;;7.92;94.41
61086;BME280;46967;48.876;2.136;2023-02-22T01:03:18;101112.44;;;7.93;94.46
61086;BME280;46967;48.876;2.136;2023-02-22T01:05:44;101110.72;;;7.95;94.36
61086;BME280;46967;48.876;2.136;2023-02-22T01:08:12;101106.44;;;7.91;94.61
61086;BME280;46967;48.876;2.136;2023-02-22T01:10:38;101112.50;;;7.90;94.70
61086;BME280;46967;48.876;2.136;2023-02-22T01:13:05;101108.19;;;7.89;94.80
61086;BME280;46967;48.876;2.136;2023-02-22T01:15:33;101109.06;;;7.89;94.66
61086;BME280;46967;48.876;2.136;2023-02-22T01:17:59;101109.94;;;7.90;94.65
61086;BME280;46967;48.876;2.136;2023-02-22T01:20:26;101106.44;;;7.91;94.76
61086;BME280;46967;48.876;2.136;2023-02-22T01:22:55;101104.75;;;7.90;94.96
61086;BME280;46967;48.876;2.136;2023-02-22T01:25:23;101098.72;;;7.89;94.95
61086;BME280;46967;48.876;2.136;2023-02-22T01:27:49;101099.59;;;7.88;94.72
61086;BME280;46967;48.876;2.136;2023-02-22T01:30:18;101091.88;;;7.87;94.85
61086;BME280;46967;48.876;2.136;2023-02-22T01:32:45;101093.59;;;7.86;94.81
61086;BME280;46967;48.876;2.136;2023-02-22T01:35:15;101097.03;;;7.87;94.93
61086;BME280;46967;48.876;2.136;2023-02-22T01:37:43;101090.13;;;7.87;94.86
61086;BME280;46967;48.876;2.136;2023-02-22T01:40:13;101087.56;;;7.86;94.87
61086;BME280;46967;48.876;2.136;2023-02-22T01:42:40;101084.16;;;7.84;95.06
61086;BME280;46967;48.876;2.136;2023-02-22T01:51:11;101086.81;;;7.77;95.52
61086;BME280;46967;48.876;2.136;2023-02-22T01:53:45;101086.00;;;7.74;95.57
61086;BME280;46967;48.876;2.136;2023-02-22T01:56:13;101093.75;;;7.72;95.99
61086;BME280;46967;48.876;2.136;2023-02-22T01:58:43;101096.31;;;7.74;95.90
61086;BME280;46967;48.876;2.136;2023-02-22T02:01:10;101088.53;;;7.77;95.69
61086;BME280;46967;48.876;2.136;2023-02-22T02:03:37;101092.81;;;7.79;95.60
61086;BME280;46967;48.876;2.136;2023-02-22T02:06:07;101089.38;;;7.80;95.76
61086;BME280;46967;48.876;2.136;2023-02-22T02:08:51;101085.91;;;7.80;95.45
61086;BME280;46967;48.876;2.136;2023-02-22T02:11:21;101077.31;;;7.79;95.37
61086;BME280;46967;48.876;2.136;2023-02-22T02:13:51;101087.69;;;7.76;95.59
61086;BME280;46967;48.876;2.136;2023-02-22T02:16:20;101079.97;;;7.75;95.76
61086;BME280;46967;48.876;2.136;2023-02-22T02:18:46;101077.38;;;7.75;95.51
61086;BME280;46967;48.876;2.136;2023-02-22T02:21:40;101073.06;;;7.74;95.27
61086;BME280;46967;48.876;2.136;2023-02-22T02:27:22;101065.31;;;7.75;95.42
61086;BME280;46967;48.876;2.136;2023-02-22T02:32:55;101063.66;;;7.71;95.87
61086;BME280;46967;48.876;2.136;2023-02-22T02:38:03;101058.47;;;7.73;95.99
61086;BME280;46967;48.876;2.136;2023-02-22T02:40:42;101060.16;;;7.74;95.81
61086;BME280;46967;48.876;2.136;2023-02-22T02:46:15;101048.16;;;7.71;95.92
61086;BME280;46967;48.876;2.136;2023-02-22T02:48:45;101049.00;;;7.72;96.08
61086;BME280;46967;48.876;2.136;2023-02-22T02:51:14;101043.88;;;7.69;95.80
61086;BME280;46967;48.876;2.136;2023-02-22T02:53:43;101049.03;;;7.69;95.93
61086;BME280;46967;48.876;2.136;2023-02-22T02:56:10;101048.22;;;7.67;96.00
61086;BME280;46967;48.876;2.136;2023-02-22T02:58:49;101051.69;;;7.64;95.82
61086;BME280;46967;48.876;2.136;2023-02-22T03:12:56;101037.19;;;7.55;95.06
61086;BME280;46967;48.876;2.136;2023-02-22T03:18:14;101031.25;;;7.49;95.51
61086;BME280;46967;48.876;2.136;2023-02-22T03:20:52;101039.06;;;7.44;95.68
61086;BME280;46967;48.876;2.136;2023-02-22T03:23:23;101036.53;;;7.39;95.86
61086;BME280;46967;48.876;2.136;2023-02-22T03:25:56;101022.75;;;7.37;95.74
61086;BME280;46967;48.876;2.136;2023-02-22T03:28:23;101018.47;;;7.38;95.95
61086;BME280;46967;48.876;2.136;2023-02-22T03:30:54;101019.31;;;7.38;95.53
61086;BME280;46967;48.876;2.136;2023-02-22T03:33:30;101022.75;;;7.39;95.21
61086;BME280;46967;48.876;2.136;2023-02-22T03:36:17;101016.78;;;7.34;95.93
61086;BME280;46967;48.876;2.136;2023-02-22T03:38:45;101011.59;;;7.35;96.68
61086;BME280;46967;48.876;2.136;2023-02-22T03:41:13;101012.44;;;7.37;96.56
61086;BME280;46967;48.876;2.136;2023-02-22T03:43:43;101018.50;;;7.35;96.04
61086;BME280;46967;48.876;2.136;2023-02-22T03:46:11;101019.38;;;7.34;96.05
61086;BME280;46967;48.876;2.136;2023-02-22T03:48:59;101010.75;;;7.36;96.46
61086;BME280;46967;48.876;2.136;2023-02-22T03:51:27;101009.03;;;7.35;96.20
61086;BME280;46967;48.876;2.136;2023-02-22T03:53:53;101010.75;;;7.36;95.49
61086;BME280;46967;48.876;2.136;2023-02-22T03:56:24;101009.88;;;7.36;95.64
61086;BME280;46967;48.876;2.136;2023-02-22T03:58:52;101004.72;;;7.34;96.18
61086;BME280;46967;48.876;2.136;2023-02-22T04:01:18;101007.28;;;7.36;96.39
61086;BME280;46967;48.876;2.136;2023-02-22T04:03:47;101001.28;;;7.35;96.42
61086;BME280;46967;48.876;2.136;2023-02-22T04:06:12;101001.28;;;7.35;96.01
61086;BME280;46967;48.876;2.136;2023-02-22T04:08:38;101007.34;;;7.33;96.80
61086;BME280;46967;48.876;2.136;2023-02-22T04:11:03;101010.78;;;7.33;97.03
61086;BME280;46967;48.876;2.136;2023-02-22T04:13:29;101005.56;;;7.38;96.97
61086;BME280;46967;48.876;2.136;2023-02-22T04:15:54;101007.19;;;7.43;97.49
61086;BME280;46967;48.876;2.136;2023-02-22T04:18:20;101007.16;;;7.45;98.16
61086;BME280;46967;48.876;2.136;2023-02-22T04:20:45;101013.03;;;7.58;98.15
61086;BME280;46967;48.876;2.136;2023-02-22T04:23:10;101010.97;;;7.80;97.69
61086;BME280;46967;48.876;2.136;2023-02-22T04:25:36;101009.25;;;7.82;97.26
61086;BME280;46967;48.876;2.136;2023-02-22T04:28:02;101005.59;;;7.94;97.05
61086;BME280;46967;48.876;2.136;2023-02-22T04:30:27;101008.16;;;7.97;96.84
61086;BME280;46967;48.876;2.136;2023-02-22T04:32:55;101008.88;;;8.05;96.70
61086;BME280;46967;48.876;2.136;2023-02-22T04:35:20;101010.44;;;8.15;96.32
61086;BME280;46967;48.876;2.136;2023-02-22T04:37:45;101006.03;;;8.21;95.64
61086;BME280;46967;48.876;2.136;2023-02-22T04:40:11;101010.31;;;8.23;95.55
61086;BME280;46967;48.876;2.136;2023-02-22T04:42:37;101009.41;;;8.26;95.28
61086;BME280;46967;48.876;2.136;2023-02-22T04:45:04;101017.13;;;8.27;95.28
61086;BME280;46967;48.876;2.136;2023-02-22T04:47:30;101015.38;;;8.28;94.85
61086;BME280;46967;48.876;2.136;2023-02-22T04:49:55;101014.53;;;8.29;94.80
61086;BME280;46967;48.876;2.136;2023-02-22T04:52:21;101013.63;;;8.31;94.69
61086;BME280;46967;48.876;2.136;2023-02-22T04:54:46;101023.06;;;8.32;94.38
61086;BME280;46967;48.876;2.136;2023-02-22T04:57:11;101018.84;;;8.28;94.54
61086;BME280;46967;48.876;2.136;2023-02-22T04:59:37;101017.94;;;8.29;94.69
61086;BME280;46967;48.876;2.136;2023-02-22T05:02:02;101025.66;;;8.32;94.36
61086;BME280;46967;48.876;2.136;2023-02-22T05:04:28;101022.22;;;8.32;94.30
61086;BME280;46967;48.876;2.136;2023-02-22T05:06:54;101022.22;;;8.32;94.50
61086;BME280;46967;48.876;2.136;2023-02-22T05:09:19;101020.44;;;8.35;94.11
61086;BME280;46967;48.876;2.136;2023-02-22T05:11:45;101020.44;;;8.35;94.28
61086;BME280;46967;48.876;2.136;2023-02-22T05:14:10;101026.47;;;8.36;94.21
61086;BME280;46967;48.876;2.136;2023-02-22T05:16:36;101023.00;;;8.37;94.07
61086;BME280;46967;48.876;2.136;2023-02-22T05:19:02;101017.78;;;8.40;93.94
61086;BME280;46967;48.876;2.136;2023-02-22T05:21:27;101022.06;;;8.41;93.72
61086;BME280;46967;48.876;2.136;2023-02-22T05:23:53;101017.88;;;8.34;94.22
61086;BME280;46967;48.876;2.136;2023-02-22T05:26:18;101011.03;;;8.31;94.09
61086;BME280;46967;48.876;2.136;2023-02-22T05:28:44;101014.47;;;8.32;93.84
61086;BME280;46967;48.876;2.136;2023-02-22T05:31:09;101022.28;;;8.29;94.04
61086;BME280;46967;48.876;2.136;2023-02-22T05:33:35;101029.22;;;8.27;94.58
61086;BME280;46967;48.876;2.136;2023-02-22T05:36:00;101027.44;;;8.29;94.24
61086;BME280;46967;48.876;2.136;2023-02-22T05:38:26;101016.25;;;8.28;94.32
61086;BME280;46967;48.876;2.136;2023-02-22T05:40:52;101013.75;;;8.24;94.58
61086;BME280;46967;48.876;2.136;2023-02-22T05:43:17;101018.09;;;8.22;94.71
61086;BME280;46967;48.876;2.136;2023-02-22T05:45:42;101018.09;;;8.23;94.59
61086;BME280;46967;48.876;2.136;2023-02-22T05:48:08;101025.91;;;8.19;94.83
61086;BME280;46967;48.876;2.136;2023-02-22T05:50:33;101031.84;;;8.24;95.18
61086;BME280;46967;48.876;2.136;2023-02-22T05:52:59;101036.19;;;8.23;95.10
61086;BME280;46967;48.876;2.136;2023-02-22T05:55:25;101035.22;;;8.27;95.41
61086;BME280;46967;48.876;2.136;2023-02-22T05:57:51;101034.41;;;8.25;95.57
61086;BME280;46967;48.876;2.136;2023-02-22T06:00:20;101020.75;;;8.19;95.95
61086;BME280;46967;48.876;2.136;2023-02-22T06:02:52;101006.09;;;8.18;95.82
61086;BME280;46967;48.876;2.136;2023-02-22T06:05:18;101008.63;;;8.21;95.64
61086;BME280;46967;48.876;2.136;2023-02-22T06:07:43;101017.25;;;8.20;95.78
61086;BME280;46967;48.876;2.136;2023-02-22T06:10:08;101026.81;;;8.16;96.00
61086;BME280;46967;48.876;2.136;2023-02-22T06:12:34;101030.41;;;8.07;96.40
61086;BME280;46967;48.876;2.136;2023-02-22T06:14:59;101017.22;;;8.21;95.98
61086;BME280;46967;48.876;2.136;2023-02-22T06:17:24;101014.72;;;8.16;96.20
61086;BME280;46967;48.876;2.136;2023-02-22T06:19:50;101014.81;;;8.10;96.40
61086;BME280;46967;48.876;2.136;2023-02-22T06:22:17;101021.72;;;8.10;96.57
61086;BME280;46967;48.876;2.136;2023-02-22T06:24:43;101015.66;;;8.12;96.69
61086;BME280;46967;48.876;2.136;2023-02-22T06:27:08;101024.19;;;8.18;96.42
61086;BME280;46967;48.876;2.136;2023-02-22T06:29:34;101026.91;;;8.08;97.11
61086;BME280;46967;48.876;2.136;2023-02-22T06:31:59;101020.94;;;8.05;97.03
61086;BME280;46967;48.876;2.136;2023-02-22T06:34:24;101026.06;;;8.09;96.89
61086;BME280;46967;48.876;2.136;2023-02-22T06:36:50;101026.94;;;8.07;97.01
61086;BME280;46967;48.876;2.136;2023-02-22T06:39:16;101029.56;;;8.04;97.48
61086;BME280;46967;48.876;2.136;2023-02-22T06:41:43;101026.97;;;8.05;97.56
61086;BME280;46967;48.876;2.136;2023-02-22T06:44:09;101030.31;;;8.12;97.34
61086;BME280;46967;48.876;2.136;2023-02-22T06:46:35;101029.44;;;8.13;97.24
61086;BME280;46967;48.876;2.136;2023-02-22T06:49:01;101028.63;;;8.11;97.51
61086;BME280;46967;48.876;2.136;2023-02-22T06:51:27;101014.91;;;8.07;97.86
61086;BME280;46967;48.876;2.136;2023-02-22T06:53:53;101013.94;;;8.11;97.72
61086;BME280;46967;48.876;2.136;2023-02-22T06:56:18;101025.97;;;8.14;97.46
61086;BME280;46967;48.876;2.136;2023-02-22T06:58:44;101028.59;;;8.12;97.69
61086;BME280;46967;48.876;2.136;2023-02-22T07:01:10;101033.75;;;8.12;97.97
61086;BME280;46967;48.876;2.136;2023-02-22T07:03:36;101036.56;;;7.98;98.79
61086;BME280;46967;48.876;2.136;2023-02-22T07:06:01;101042.53;;;8.01;98.57
61086;BME280;46967;48.876;2.136;2023-02-22T07:08:28;101055.41;;;8.05;98.68
61086;BME280;46967;48.876;2.136;2023-02-22T07:10:53;101053.56;;;8.12;98.36
61086;BME280;46967;48.876;2.136;2023-02-22T07:13:19;101054.66;;;7.97;99.13
61086;BME280;46967;48.876;2.136;2023-02-22T07:15:45;101055.56;;;7.94;99.44
61086;BME280;46967;48.876;2.136;2023-02-22T07:18:10;101062.34;;;8.02;98.96
61086;BME280;46967;48.876;2.136;2023-02-22T07:20:36;101067.59;;;7.97;99.44
61086;BME280;46967;48.876;2.136;2023-02-22T07:23:02;101059.78;;;8.00;99.04
61086;BME280;46967;48.876;2.136;2023-02-22T07:25:28;101067.69;;;7.91;99.93
61086;BME280;46967;48.876;2.136;2023-02-22T07:27:53;101071.84;;;8.03;99.27
61086;BME280;46967;48.876;2.136;2023-02-22T07:30:24;101066.78;;;7.93;99.54
61086;BME280;46967;48.876;2.136;2023-02-22T07:32:51;101088.25;;;7.98;99.62
61086;BME280;46967;48.876;2.136;2023-02-22T07:35:28;101084.00;;;7.94;99.88
61086;BME280;46967;48.876;2.136;2023-02-22T07:37:54;101080.44;;;8.03;99.71
61086;BME280;46967;48.876;2.136;2023-02-22T07:40:20;101090.75;;;8.05;99.53
61086;BME280;46967;48.876;2.136;2023-02-22T07:45:38;101087.16;;;8.13;99.05
61086;BME280;46967;48.876;2.136;2023-02-22T07:48:04;101089.81;;;8.09;99.01
61086;BME280;46967;48.876;2.136;2023-02-22T07:50:31;101089.72;;;8.15;98.85
61086;BME280;46967;48.876;2.136;2023-02-22T07:52:59;101096.59;;;8.16;99.14
61086;BME280;46967;48.876;2.136;2023-02-22T07:55:27;101086.09;;;8.28;98.30
61086;BME280;46967;48.876;2.136;2023-02-22T07:57:59;101089.72;;;8.15;98.95
61086;BME280;46967;48.876;2.136;2023-02-22T08:00:28;101098.41;;;8.12;99.30
61086;BME280;46967;48.876;2.136;2023-02-22T08:02:54;101109.56;;;8.13;99.72
61086;BME280;46967;48.876;2.136;2023-02-22T08:05:22;101106.91;;;8.19;99.18
61086;BME280;46967;48.876;2.136;2023-02-22T08:07:47;101105.25;;;8.13;99.64
61086;BME280;46967;48.876;2.136;2023-02-22T08:10:14;101105.16;;;8.20;99.80
61086;BME280;46967;48.876;2.136;2023-02-22T08:12:39;101113.94;;;8.09;100.00
61086;BME280;46967;48.876;2.136;2023-02-22T08:15:07;101112.25;;;8.07;100.00
61086;BME280;46967;48.876;2.136;2023-02-22T08:17:33;101115.63;;;8.10;100.00
61086;BME280;46967;48.876;2.136;2023-02-22T08:19:58;101123.41;;;8.09;100.00
61086;BME280;46967;48.876;2.136;2023-02-22T08:22:23;101127.75;;;8.08;100.00
61086;BME280;46967;48.876;2.136;2023-02-22T08:24:49;101115.91;;;7.92;100.00
61086;BME280;46967;48.876;2.136;2023-02-22T08:27:28;101128.69;;;8.04;100.00
61086;BME280;46967;48.876;2.136;2023-02-22T08:29:54;101129.53;;;8.05;100.00
61086;BME280;46967;48.876;2.136;2023-02-22T08:32:20;101132.13;;;8.03;100.00
61086;BME280;46967;48.876;2.136;2023-02-22T08:34:46;101114.72;;;8.14;100.00
61086;BME280;46967;48.876;2.136;2023-02-22T08:37:12;101117.19;;;8.24;100.00
61086;BME280;46967;48.876;2.136;2023-02-22T08:39:37;101111.94;;;8.28;100.00
61086;BME280;46967;48.876;2.136;2023-02-22T08:42:02;101122.31;;;8.27;100.00
61086;BME280;46967;48.876;2.136;2023-02-22T08:44:28;101126.41;;;8.40;100.00
61086;BME280;46967;48.876;2.136;2023-02-22T08:46:53;101131.50;;;8.48;100.00
61086;BME280;46967;48.876;2.136;2023-02-22T08:49:19;101139.22;;;8.49;100.00
61086;BME280;46967;48.876;2.136;2023-02-22T08:51:45;101144.41;;;8.48;100.00
61086;BME280;46967;48.876;2.136;2023-02-22T08:54:11;101146.06;;;8.54;100.00
61086;BME280;46967;48.876;2.136;2023-02-22T08:56:36;101139.84;;;8.64;100.00
61086;BME280;46967;48.876;2.136;2023-02-22T08:59:02;101136.63;;;8.49;100.00
61086;BME280;46967;48.876;2.136;2023-02-22T09:01:27;101136.59;;;8.52;100.00
61086;BME280;46967;48.876;2.136;2023-02-22T09:03:53;101131.34;;;8.57;100.00
61086;BME280;46967;48.876;2.136;2023-02-22T09:06:20;101136.31;;;8.69;99.43
61086;BME280;46967;48.876;2.136;2023-02-22T09:08:46;101144.25;;;8.60;100.00
61086;BME280;46967;48.876;2.136;2023-02-22T09:11:11;101132.03;;;8.67;99.90
61086;BME280;46967;48.876;2.136;2023-02-22T09:13:36;101128.63;;;8.65;99.60
61086;BME280;46967;48.876;2.136;2023-02-22T09:16:02;101122.34;;;8.80;98.64
61086;BME280;46967;48.876;2.136;2023-02-22T09:18:27;101126.75;;;8.75;98.81
61086;BME280;46967;48.876;2.136;2023-02-22T09:20:53;101129.41;;;8.70;99.55
61086;BME280;46967;48.876;2.136;2023-02-22T09:23:19;101129.47;;;8.67;100.00
61086;BME280;46967;48.876;2.136;2023-02-22T09:25:48;101134.41;;;8.81;99.58
61086;BME280;46967;48.876;2.136;2023-02-22T09:28:14;101130.78;;;8.89;98.79
61086;BME280;46967;48.876;2.136;2023-02-22T09:30:39;101127.25;;;8.95;98.49
61086;BME280;46967;48.876;2.136;2023-02-22T09:33:14;101135.97;;;8.89;99.06
61086;BME280;46967;48.876;2.136;2023-02-22T09:35:41;101133.56;;;8.80;99.57
61086;BME280;46967;48.876;2.136;2023-02-22T09:38:11;101130.81;;;8.88;98.79
61086;BME280;46967;48.876;2.136;2023-02-22T09:40:42;101128.25;;;8.86;99.53
61086;BME280;46967;48.876;2.136;2023-02-22T09:49:05;101139.31;;;8.98;98.88
61086;BME280;46967;48.876;2.136;2023-02-22T09:54:26;101125.25;;;9.10;98.62
61086;BME280;46967;48.876;2.136;2023-02-22T09:56:55;101131.44;;;9.02;99.06
61086;BME280;46967;48.876;2.136;2023-02-22T09:59:26;101131.34;;;9.07;97.98
61086;BME280;46967;48.876;2.136;2023-02-22T10:02:06;101135.03;;;8.95;98.93
61086;BME280;46967;48.876;2.136;2023-02-22T10:04:45;101133.28;;;8.96;99.44
61086;BME280;46967;48.876;2.136;2023-02-22T10:07:19;101132.47;;;8.94;98.93
61086;BME280;46967;48.876;2.136;2023-02-22T10:09:50;101137.44;;;9.04;98.05
61086;BME280;46967;48.876;2.136;2023-02-22T10:12:22;101133.31;;;8.94;98.97
61086;BME280;46967;48.876;2.136;2023-02-22T10:15:21;101135.03;;;8.94;98.56
61086;BME280;46967;48.876;2.136;2023-02-22T10:24:19;101128.63;;;8.66;100.00
61086;BME280;46967;48.876;2.136;2023-02-22T10:26:49;101127.59;;;8.75;100.00
61086;BME280;46967;48.876;2.136;2023-02-22T10:31:59;101139.81;;;8.67;100.00
61086;BME280;46967;48.876;2.136;2023-02-22T10:34:29;101142.50;;;8.59;100.00
61086;BME280;46967;48.876;2.136;2023-02-22T10:37:04;101144.97;;;8.67;100.00
61086;BME280;46967;48.876;2.136;2023-02-22T10:39:38;101151.28;;;8.50;100.00
61086;BME280;46967;48.876;2.136;2023-02-22T10:42:05;101152.22;;;8.46;100.00
61086;BME280;46967;48.876;2.136;2023-02-22T10:44:35;101151.34;;;8.47;100.00
61086;BME280;46967;48.876;2.136;2023-02-22T10:47:04;101149.66;;;8.45;100.00
61086;BME280;46967;48.876;2.136;2023-02-22T10:49:43;101152.25;;;8.43;100.00
61086;BME280;46967;48.876;2.136;2023-02-22T10:52:21;101149.84;;;8.29;100.00
61086;BME280;46967;48.876;2.136;2023-02-22T10:54:49;101153.22;;;8.36;100.00
61086;BME280;46967;48.876;2.136;2023-02-22T10:57:21;101153.16;;;8.41;100.00
61086;BME280;46967;48.876;2.136;2023-02-22T10:59:47;101151.28;;;8.50;100.00
61086;BME280;46967;48.876;2.136;2023-02-22T11:02:29;101147.75;;;8.55;100.00
61086;BME280;46967;48.876;2.136;2023-02-22T11:04:57;101157.09;;;8.65;100.00
61086;BME280;46967;48.876;2.136;2023-02-22T11:07:30;101145.72;;;8.74;99.61
61086;BME280;46967;48.876;2.136;2023-02-22T11:10:01;101143.16;;;8.72;98.34
61086;BME280;46967;48.876;2.136;2023-02-22T11:14:55;101149.88;;;8.85;97.56
61086;BME280;46967;48.876;2.136;2023-02-22T11:17:27;101154.94;;;8.92;97.35
61086;BME280;46967;48.876;2.136;2023-02-22T11:19:54;101154.13;;;8.86;96.99
61086;BME280;46967;48.876;2.136;2023-02-22T11:22:24;101151.56;;;8.86;96.63
61086;BME280;46967;48.876;2.136;2023-02-22T11:24:56;101141.06;;;8.94;96.05
61086;BME280;46967;48.876;2.136;2023-02-22T11:29:57;101147.13;;;8.95;95.38
61086;BME280;46967;48.876;2.136;2023-02-22T11:32:31;101148.09;;;8.87;95.95
61086;BME280;46967;48.876;2.136;2023-02-22T11:35:22;101148.13;;;8.86;96.02
61086;BME280;46967;48.876;2.136;2023-02-22T11:38:17;101138.38;;;9.00;95.29
61086;BME280;46967;48.876;2.136;2023-02-22T11:40:45;101144.56;;;8.93;95.80
61086;BME280;46967;48.876;2.136;2023-02-22T11:43:17;101142.09;;;8.85;95.68
61086;BME280;46967;48.876;2.136;2023-02-22T11:46:02;101129.25;;;8.79;96.31
61086;BME280;46967;48.876;2.136;2023-02-22T11:48:31;101127.53;;;8.78;96.51
61086;BME280;46967;48.876;2.136;2023-02-22T11:56:47;101137.59;;;8.97;95.93
61086;BME280;46967;48.876;2.136;2023-02-22T12:10:19;101124.41;;;9.11;95.80
61086;BME280;46967;48.876;2.136;2023-02-22T12:15:38;101116.50;;;9.17;95.41
61086;BME280;46967;48.876;2.136;2023-02-22T12:18:13;101109.59;;;9.17;95.55
61086;BME280;46967;48.876;2.136;2023-02-22T12:20:46;101109.50;;;9.22;95.19
61086;BME280;46967;48.876;2.136;2023-02-22T12:23:37;101111.25;;;9.21;94.79
61086;BME280;46967;48.876;2.136;2023-02-22T12:26:13;101106.06;;;9.21;94.87
61086;BME280;46967;48.876;2.136;2023-02-22T12:28:44;101106.88;;;9.23;95.02
61086;BME280;46967;48.876;2.136;2023-02-22T12:31:20;101106.09;;;9.20;95.13
61086;BME280;46967;48.876;2.136;2023-02-22T12:33:52;101108.69;;;9.20;95.09
61086;BME280;46967;48.876;2.136;2023-02-22T12:36:21;101107.84;;;9.18;94.99
61086;BME280;46967;48.876;2.136;2023-02-22T12:38:56;101111.25;;;9.21;95.11
61086;BME280;46967;48.876;2.136;2023-02-22T12:41:32;101094.44;;;8.96;96.68
61086;BME280;46967;48.876;2.136;2023-02-22T12:44:19;101099.72;;;8.89;97.09
61086;BME280;46967;48.876;2.136;2023-02-22T12:46:51;101108.44;;;8.85;97.75
61086;BME280;46967;48.876;2.136;2023-02-22T12:49:38;101109.97;;;8.96;97.15
61086;BME280;46967;48.876;2.136;2023-02-22T12:52:30;101109.38;;;8.81;97.78
61086;BME280;46967;48.876;2.136;2023-02-22T12:55:13;101100.91;;;8.72;98.34
61086;BME280;46967;48.876;2.136;2023-02-22T12:57:59;101098.25;;;8.76;97.73
61086;BME280;46967;48.876;2.136;2023-02-22T13:00:45;101104.16;;;8.84;97.53
61086;BME280;46967;48.876;2.136;2023-02-22T13:03:20;101096.47;;;8.80;97.61
61086;BME280;46967;48.876;2.136;2023-02-22T13:05:55;101102.63;;;8.73;97.97
61086;BME280;46967;48.876;2.136;2023-02-22T13:08:35;101103.31;;;8.82;97.68
61086;BME280;46967;48.876;2.136;2023-02-22T13:19:29;101096.94;;;8.52;99.61
61086;BME280;46967;48.876;2.136;2023-02-22T13:22:23;101096.66;;;8.67;98.15
61086;BME280;46967;48.876;2.136;2023-02-22T13:25:04;101089.09;;;8.58;98.61
61086;BME280;46967;48.876;2.136;2023-02-22T13:27:42;101090.03;;;8.52;99.29
61086;BME280;46967;48.876;2.136;2023-02-22T13:35:41;101092.41;;;8.65;98.70
61086;BME280;46967;48.876;2.136;2023-02-22T13:38:37;101088.09;;;8.64;98.67
61086;BME280;46967;48.876;2.136;2023-02-22T13:44:32;101083.19;;;8.48;99.85
61086;BME280;46967;48.876;2.136;2023-02-22T13:49:54;101084.00;;;8.54;99.96
61086;BME280;46967;48.876;2.136;2023-02-22T13:52:25;101076.00;;;8.66;99.39
61086;BME280;46967;48.876;2.136;2023-02-22T13:55:10;101080.22;;;8.72;98.96
61086;BME280;46967;48.876;2.136;2023-02-22T13:57:44;101068.03;;;8.77;98.73
61086;BME280;46967;48.876;2.136;2023-02-22T14:14:08;101062.41;;;9.03;98.67
61086;BME280;46967;48.876;2.136;2023-02-22T14:16:33;101061.56;;;9.02;98.36
61086;BME280;46967;48.876;2.136;2023-02-22T14:21:54;101064.25;;;8.96;99.56
61086;BME280;46967;48.876;2.136;2023-02-22T14:24:20;101064.22;;;8.98;100.00
61086;BME280;46967;48.876;2.136;2023-02-22T14:26:58;101066.50;;;9.13;100.00
61086;BME280;46967;48.876;2.136;2023-02-22T14:29:24;101063.72;;;9.22;100.00
61086;BME280;46967;48.876;2.136;2023-02-22T14:34:20;101063.63;;;9.29;100.00
61086;BME280;46967;48.876;2.136;2023-02-22T14:37:10;101064.50;;;9.26;99.94
61086;BME280;46967;48.876;2.136;2023-02-22T14:39:41;101068.72;;;9.32;100.00
61086;BME280;46967;48.876;2.136;2023-02-22T14:42:24;101065.25;;;9.34;99.99
61086;BME280;46967;48.876;2.136;2023-02-22T14:45:00;101065.41;;;9.25;100.00
61086;BME280;46967;48.876;2.136;2023-02-22T14:47:49;101074.66;;;9.37;100.00
61086;BME280;46967;48.876;2.136;2023-02-22T14:50:24;101067.00;;;9.31;100.00
61086;BME280;46967;48.876;2.136;2023-02-22T14:53:03;101061.09;;;9.25;100.00
61086;BME280;46967;48.876;2.136;2023-02-22T14:55:31;101067.06;;;9.28;99.83
61086;BME280;46967;48.876;2.136;2023-02-22T15:00:40;101059.06;;;9.40;99.33
61086;BME280;46967;48.876;2.136;2023-02-22T15:03:17;101064.31;;;9.37;99.27
61086;BME280;46967;48.876;2.136;2023-02-22T15:05:43;101056.56;;;9.35;99.41
61086;BME280;46967;48.876;2.136;2023-02-22T15:08:09;101058.22;;;9.39;99.10
61086;BME280;46967;48.876;2.136;2023-02-22T15:10:47;101058.22;;;9.39;99.36